Oasis, Nevada
Current Conditions -  °F | °C
As of 10:35 AM on Wednesday 26 Nov 2014 (Local Time) from KENV Reporting Station
Clear Clear  
Wind Chill: 52°   Ceiling: Unl
Heat Index: 52°   Visibility: 10mi
Dew Point: 32°   Wind: 0mph
Humidity: 47%   Direction: NA
Pressure: 30.4"   Gusts: NA
Location:  41.0114°N, 114.57°W
Report Text: KENV 261835Z AUTO 00000KT 10SM CLR 11/00 A3040 RMK AO1
Loading
Personal Weather Stations






























Interactive Weather Map New forecast layout! Learn more

10-Day Weather Forecast

Advertisements
Track Severe Weather on mobile